Time;durP1;ratioP1;P1;durP2;ratioP2;P2;SDS_P1;SDS_P2;PMS_P1;PMS_P2;Temp;Humidity;BMP_temperature;BMP_pressure;BME280_temperature;BME280_humidity;BME280_pressure;Samples;Min_cycle;Max_cycle;Signal;HPM_P1;HPM_P2
2021/01/12 00:01:57;;;;;;;39.63;25.25;;;;;;;1.41;62.01;101040.06;1784457;80;20918;-52
2021/01/12 00:04:25;;;;;;;35.33;22.90;;;;;;;1.37;62.15;101037.76;1784327;80;21199;-52
2021/01/12 00:06:52;;;;;;;33.73;22.87;;;;;;;1.41;62.37;101048.19;1784501;80;21018;-52
2021/01/12 00:09:21;;;;;;;37.13;22.95;;;;;;;1.44;62.21;101045.90;1784500;80;20998;-52
2021/01/12 00:11:54;;;;;;;36.80;22.98;;;;;;;1.41;62.25;101046.83;1784529;80;20942;-52
2021/01/12 00:14:33;;;;;;;32.42;22.45;;;;;;;1.35;62.79;101038.98;1784644;80;21029;-52
2021/01/12 00:17:06;;;;;;;34.58;22.45;;;;;;;1.31;63.01;101045.30;1784305;80;21354;-52
2021/01/12 00:19:36;;;;;;;32.67;21.37;;;;;;;1.22;63.09;101049.19;1784564;80;21056;-52
2021/01/12 00:22:14;;;;;;;33.10;23.05;;;;;;;1.17;63.29;101048.93;1784561;80;21049;-52
2021/01/12 00:24:37;;;;;;;29.95;20.88;;;;;;;1.09;63.84;101040.98;1784625;79;21009;-53
2021/01/12 00:27:05;;;;;;;31.90;21.48;;;;;;;1.11;63.57;101045.66;1784444;80;21001;-53
2021/01/12 00:29:32;;;;;;;32.15;21.77;;;;;;;1.16;63.60;101044.05;1784617;80;23544;-52
2021/01/12 00:32:00;;;;;;;35.15;23.70;;;;;;;1.21;63.68;101046.16;1784321;79;20993;-52
2021/01/12 00:34:27;;;;;;;32.73;23.85;;;;;;;1.24;63.66;101047.11;1795224;79;20989;-52
2021/01/12 00:36:55;;;;;;;40.75;29.05;;;;;;;1.25;63.57;101050.14;1799024;79;21024;-52
2021/01/12 00:39:23;;;;;;;50.45;32.88;;;;;;;1.18;64.01;101051.44;1799145;79;21017;-52
2021/01/12 00:41:55;;;;;;;38.50;23.35;;;;;;;1.20;63.64;101045.33;1799026;79;21201;-52
2021/01/12 00:44:24;;;;;;;34.05;22.27;;;;;;;1.23;63.60;101042.75;1798728;79;21659;-52
2021/01/12 00:46:52;;;;;;;33.00;21.90;;;;;;;1.23;63.81;101044.11;1779490;80;21002;-52
2021/01/12 00:49:22;;;;;;;35.45;24.02;;;;;;;1.20;64.22;101039.06;1779526;80;20974;-52
2021/01/12 00:51:49;;;;;;;33.33;23.12;;;;;;;1.20;63.89;101039.06;1779505;80;21018;-52
2021/01/12 00:54:20;;;;;;;30.62;20.70;;;;;;;1.19;63.67;101036.05;1779421;79;21186;-52
2021/01/12 00:56:50;;;;;;;38.65;24.45;;;;;;;1.13;64.02;101039.03;1779604;80;20970;-52
2021/01/12 00:59:17;;;;;;;40.83;24.32;;;;;;;1.10;64.41;101034.52;1779378;80;21070;-53
2021/01/12 01:01:46;;;;;;;42.58;30.77;;;;;;;1.17;64.06;101039.45;1779460;80;21045;-52
2021/01/12 01:04:18;;;;;;;41.95;32.55;;;;;;;1.17;63.74;101037.61;1779256;80;21065;-52
2021/01/12 01:06:49;;;;;;;42.93;29.98;;;;;;;1.15;63.95;101034.77;1779693;80;21862;-53
2021/01/12 01:09:17;;;;;;;40.83;31.73;;;;;;;1.11;64.32;101037.55;1779478;80;21030;-53
2021/01/12 01:11:46;;;;;;;41.15;28.02;;;;;;;1.09;64.52;101040.98;1779423;80;21057;-53
2021/01/12 01:14:15;;;;;;;39.55;25.90;;;;;;;1.11;64.05;101035.66;1779453;80;21102;-52
2021/01/12 01:16:43;;;;;;;38.33;25.43;;;;;;;1.08;63.99;101027.12;1779333;80;21080;-52
2021/01/12 01:19:15;;;;;;;37.88;22.95;;;;;;;1.06;64.54;101027.81;1779513;80;21192;-52
2021/01/12 01:21:48;;;;;;;53.80;39.38;;;;;;;0.99;65.22;101025.08;1779106;80;21081;-52
2021/01/12 01:24:16;;;;;;;46.28;28.15;;;;;;;0.99;65.21;101023.20;1779615;80;20986;-53
2021/01/12 01:26:47;;;;;;;45.58;28.62;;;;;;;1.04;65.00;101036.13;1779287;80;21076;-52
2021/01/12 01:29:14;;;;;;;42.38;27.73;;;;;;;1.10;64.65;101029.09;1779506;80;20970;-52
2021/01/12 01:31:44;;;;;;;42.93;28.73;;;;;;;1.12;64.78;101029.76;1779592;80;20990;-52
2021/01/12 01:34:12;;;;;;;45.95;28.30;;;;;;;1.11;65.09;101031.61;1781392;80;21362;-52
2021/01/12 01:36:39;;;;;;;36.98;23.22;;;;;;;1.08;64.80;101035.23;1783989;80;20986;-53
2021/01/12 01:39:08;;;;;;;37.10;24.00;;;;;;;1.09;64.49;101030.98;1783883;80;20994;-52
2021/01/12 01:41:36;;;;;;;42.90;27.25;;;;;;;1.12;64.50;101033.29;1783940;80;21013;-52
2021/01/12 01:44:06;;;;;;;40.35;24.40;;;;;;;1.07;64.65;101030.32;1783938;80;21185;-52
2021/01/12 01:46:34;;;;;;;34.60;22.60;;;;;;;1.03;64.67;101029.89;1783905;80;21021;-52
2021/01/12 01:49:02;;;;;;;38.40;25.12;;;;;;;1.07;64.11;101033.55;1783871;80;20991;-52
2021/01/12 01:51:31;;;;;;;35.17;23.47;;;;;;;1.06;64.58;101033.23;1783544;80;20998;-52
2021/01/12 01:53:59;;;;;;;33.65;19.52;;;;;;;1.09;64.52;101032.86;1783830;79;20981;-53
2021/01/12 01:56:28;;;;;;;30.55;19.48;;;;;;;1.10;64.40;101022.33;1783849;80;21638;-52
2021/01/12 01:58:55;;;;;;;34.38;21.17;;;;;;;1.07;64.18;101023.56;1783665;80;21307;-52
2021/01/12 02:01:23;;;;;;;30.62;21.10;;;;;;;1.07;63.53;101024.08;1783740;80;21033;-52
2021/01/12 02:04:09;;;;;;;34.73;23.62;;;;;;;1.11;63.27;101017.25;1783820;80;21033;-52
2021/01/12 02:06:39;;;;;;;33.98;23.25;;;;;;;1.13;63.12;101019.23;1783773;80;20989;-52
2021/01/12 02:09:28;;;;;;;33.40;23.77;;;;;;;1.15;62.99;101017.19;1783832;80;21196;-52
2021/01/12 02:11:56;;;;;;;32.88;21.77;;;;;;;1.14;63.23;101008.73;1783854;80;20989;-52
2021/01/12 02:14:27;;;;;;;27.00;18.75;;;;;;;1.14;63.21;101011.45;1783995;80;20974;-52
2021/01/12 02:16:56;;;;;;;34.38;23.15;;;;;;;1.15;63.29;101010.42;1783734;80;21611;-52
2021/01/12 02:19:27;;;;;;;44.40;27.73;;;;;;;1.12;63.64;101008.11;1784063;80;21482;-52
2021/01/12 02:22:01;;;;;;;42.08;23.75;;;;;;;1.13;63.20;101010.62;1784036;80;22448;-52
2021/01/12 02:24:30;;;;;;;38.65;25.15;;;;;;;1.13;62.77;101003.85;1755629;80;21033;-54
2021/01/12 02:26:58;;;;;;;37.55;23.40;;;;;;;1.09;62.41;100999.04;1784035;80;21737;-52
2021/01/12 02:29:25;;;;;;;35.90;23.75;;;;;;;1.09;62.88;101001.74;1783668;80;21047;-53
2021/01/12 02:31:53;;;;;;;38.35;22.90;;;;;;;1.12;62.74;101002.70;1783958;80;21025;-53
2021/01/12 02:34:20;;;;;;;38.98;25.35;;;;;;;1.08;62.79;101001.41;1781841;80;23628;-52
2021/01/12 02:36:49;;;;;;;33.65;21.90;;;;;;;1.00;62.94;100999.17;1779616;80;21049;-53
2021/01/12 02:39:16;;;;;;;33.38;22.67;;;;;;;1.01;62.54;100995.41;1779446;80;21068;-53
2021/01/12 02:41:46;;;;;;;31.68;20.70;;;;;;;0.97;62.00;100988.75;1779259;80;20998;-52
2021/01/12 02:44:24;;;;;;;33.98;20.40;;;;;;;1.01;61.61;100996.77;1779379;80;21038;-53
2021/01/12 02:46:55;;;;;;;33.55;21.87;;;;;;;1.02;61.05;100988.98;1779461;80;21474;-53
2021/01/12 02:49:27;;;;;;;32.60;19.42;;;;;;;1.02;61.24;100986.80;1779363;80;21049;-52
2021/01/12 02:51:55;;;;;;;33.35;21.95;;;;;;;1.07;61.56;100984.85;1779200;80;21045;-53
2021/01/12 02:54:23;;;;;;;32.67;21.95;;;;;;;1.11;61.62;100976.14;1779456;79;21014;-53
2021/01/12 02:56:50;;;;;;;34.23;21.45;;;;;;;1.13;61.57;100975.94;1779263;80;20982;-52
2021/01/12 02:59:18;;;;;;;31.25;21.07;;;;;;;1.10;62.27;100974.98;1779380;80;21377;-52
2021/01/12 03:01:45;;;;;;;31.95;19.87;;;;;;;1.09;61.85;100975.52;1779420;80;22060;-52
2021/01/12 03:04:13;;;;;;;33.55;21.42;;;;;;;1.15;61.25;100973.89;1779448;80;21018;-52
2021/01/12 03:06:40;;;;;;;35.80;22.80;;;;;;;1.18;61.50;100976.19;1779387;80;20998;-52
2021/01/12 03:09:08;;;;;;;31.73;20.45;;;;;;;1.15;61.78;100970.66;1779538;80;21120;-52
2021/01/12 03:11:36;;;;;;;32.95;21.15;;;;;;;1.17;61.77;100963.69;1779324;80;21197;-52
2021/01/12 03:14:03;;;;;;;31.57;21.12;;;;;;;1.17;61.70;100967.25;1779160;80;21583;-52
2021/01/12 03:16:34;;;;;;;27.22;19.62;;;;;;;1.13;61.92;100965.11;1779337;80;21017;-52
2021/01/12 03:19:03;;;;;;;29.52;17.02;;;;;;;1.13;60.97;100957.00;1779236;80;21568;-52
2021/01/12 03:21:32;;;;;;;28.65;18.27;;;;;;;1.14;60.58;100962.20;1779541;80;20982;-52
2021/01/12 03:23:59;;;;;;;35.40;22.10;;;;;;;1.17;60.51;100966.39;1779357;80;20994;-52
2021/01/12 03:26:27;;;;;;;33.02;22.30;;;;;;;1.15;60.89;100954.42;1779521;80;21033;-52
2021/01/12 03:28:54;;;;;;;35.48;24.25;;;;;;;1.12;61.17;100960.23;1779342;80;21022;-52
2021/01/12 03:31:22;;;;;;;35.28;23.62;;;;;;;1.15;61.22;100953.59;1779429;80;21695;-52
2021/01/12 03:33:50;;;;;;;39.90;25.72;;;;;;;1.19;61.18;100953.52;1761062;81;21024;-53
2021/01/12 03:36:18;;;;;;;36.20;24.20;;;;;;;1.20;61.29;100948.41;1756248;81;21207;-52
2021/01/12 03:38:45;;;;;;;40.40;26.80;;;;;;;1.19;61.44;100946.75;1756269;81;21052;-53
2021/01/12 03:41:14;;;;;;;33.80;24.35;;;;;;;1.18;61.55;100934.25;1756257;81;20986;-53
2021/01/12 03:43:41;;;;;;;29.05;20.32;;;;;;;1.18;61.42;100927.48;1756422;81;21053;-53
2021/01/12 03:46:09;;;;;;;27.87;20.05;;;;;;;1.18;60.45;100925.60;1787417;80;20978;-53
2021/01/12 03:48:36;;;;;;;30.52;22.15;;;;;;;1.20;60.12;100926.26;1787470;80;21194;-52
2021/01/12 03:51:04;;;;;;;30.97;19.85;;;;;;;1.21;60.00;100924.38;1787350;80;21974;-53
2021/01/12 03:53:32;;;;;;;31.15;18.32;;;;;;;1.23;60.42;100920.12;1787278;78;21084;-52
2021/01/12 03:56:00;;;;;;;26.55;19.07;;;;;;;1.26;60.28;100917.86;1787335;80;20990;-52
2021/01/12 03:58:28;;;;;;;26.42;18.35;;;;;;;1.33;59.98;100911.97;1787372;80;20962;-53
2021/01/12 04:00:56;;;;;;;30.20;18.82;;;;;;;1.35;59.48;100919.88;1787431;80;21255;-52
2021/01/12 04:03:23;;;;;;;23.18;17.55;;;;;;;1.36;59.31;100912.09;1787389;80;21018;-52
2021/01/12 04:05:52;;;;;;;25.02;16.57;;;;;;;1.39;59.29;100911.69;1787347;80;21554;-53
2021/01/12 04:08:19;;;;;;;27.60;18.98;;;;;;;1.35;58.71;100916.64;1787406;80;21041;-52
2021/01/12 04:10:47;;;;;;;22.45;15.70;;;;;;;1.26;58.69;100909.73;1787377;80;20918;-52
2021/01/12 04:13:14;;;;;;;26.52;18.27;;;;;;;1.17;58.81;100908.22;1787044;80;21146;-54
2021/01/12 04:15:42;;;;;;;25.65;16.37;;;;;;;1.10;59.12;100909.55;1787286;80;21005;-54
2021/01/12 04:18:09;;;;;;;28.57;19.77;;;;;;;1.07;59.22;100903.69;1787070;80;21014;-51
2021/01/12 04:20:39;;;;;;;25.52;17.30;;;;;;;1.07;59.36;100907.74;1787432;80;21033;-53
2021/01/12 04:23:06;;;;;;;26.00;17.23;;;;;;;1.05;59.10;100902.53;1787426;80;21033;-53
2021/01/12 04:25:39;;;;;;;29.85;20.30;;;;;;;1.00;59.20;100908.55;1787572;80;21198;-53
2021/01/12 04:28:07;;;;;;;28.38;18.62;;;;;;;0.97;59.42;100902.69;1787406;80;21056;-53
2021/01/12 04:30:34;;;;;;;28.42;20.32;;;;;;;0.96;59.64;100912.68;1787616;80;21009;-54
2021/01/12 04:33:02;;;;;;;25.72;17.48;;;;;;;0.96;59.73;100909.97;1787501;80;21021;-52
2021/01/12 04:35:30;;;;;;;29.02;20.27;;;;;;;0.97;59.86;100898.13;1782778;80;20998;-53
2021/01/12 04:37:57;;;;;;;32.58;20.80;;;;;;;1.00;60.21;100904.48;1779530;80;22144;-52
2021/01/12 04:40:26;;;;;;;28.77;19.27;;;;;;;1.05;60.18;100901.71;1779214;80;21025;-53
2021/01/12 04:42:57;;;;;;;29.87;21.02;;;;;;;1.00;60.50;100900.44;1779627;80;21572;-53
2021/01/12 04:45:26;;;;;;;27.48;19.85;;;;;;;0.97;60.92;100896.78;1779132;80;21058;-52
2021/01/12 04:47:53;;;;;;;40.40;22.30;;;;;;;0.98;61.10;100903.02;1779661;80;21606;-51
2021/01/12 04:50:22;;;;;;;33.73;20.95;;;;;;;0.96;61.39;100904.56;1779695;80;22496;-51
2021/01/12 04:52:51;;;;;;;33.65;22.42;;;;;;;0.91;61.87;100897.55;1779460;79;21123;-51
2021/01/12 04:55:20;;;;;;;36.42;22.90;;;;;;;0.88;62.30;100897.13;1779625;80;20942;-52
2021/01/12 04:57:49;;;;;;;32.67;22.75;;;;;;;0.86;62.62;100898.67;1779496;80;21017;-52
2021/01/12 05:00:33;;;;;;;32.78;21.55;;;;;;;0.81;63.07;100891.13;1779519;80;21041;-52
2021/01/12 05:03:06;;;;;;;34.60;23.98;;;;;;;0.73;63.59;100889.09;1778817;80;22413;-51
2021/01/12 05:05:38;;;;;;;33.85;21.97;;;;;;;0.66;64.41;100881.78;1779361;80;21045;-52
2021/01/12 05:08:09;;;;;;;39.67;26.62;;;;;;;0.64;64.86;100879.80;1779487;80;21013;-52
2021/01/12 05:10:44;;;;;;;37.10;21.87;;;;;;;0.64;65.17;100885.21;1779372;80;20946;-52
2021/01/12 05:13:14;;;;;;;40.63;24.80;;;;;;;0.68;65.22;100882.41;1779099;80;21044;-52
2021/01/12 05:15:45;;;;;;;39.42;27.00;;;;;;;0.70;65.44;100884.95;1710868;81;21345;-52
2021/01/12 05:18:16;;;;;;;40.45;25.90;;;;;;;0.67;65.69;100893.42;1779246;80;21188;-52
2021/01/12 05:20:46;;;;;;;49.88;28.42;;;;;;;0.64;66.01;100892.47;1760932;81;21015;-52
2021/01/12 05:23:23;;;;;;;34.78;24.35;;;;;;;0.62;66.44;100884.55;1778659;80;21041;-52
2021/01/12 05:25:54;;;;;;;40.43;25.32;;;;;;;0.62;66.92;100893.20;1779586;80;20950;-52
2021/01/12 05:28:21;;;;;;;41.05;27.30;;;;;;;0.59;67.47;100891.71;1760600;81;21305;-51
2021/01/12 05:30:49;;;;;;;48.17;29.65;;;;;;;0.56;67.84;100897.52;1779413;80;21928;-52
2021/01/12 05:33:18;;;;;;;44.42;27.30;;;;;;;0.52;68.17;100893.53;1760875;81;21055;-52
2021/01/12 05:35:49;;;;;;;45.00;29.77;;;;;;;0.49;68.50;100892.58;1741020;81;20994;-52
2021/01/12 05:38:28;;;;;;;41.40;27.10;;;;;;;0.51;68.93;100883.73;1734314;82;21018;-52
2021/01/12 05:41:01;;;;;;;43.40;26.68;;;;;;;0.47;69.21;100888.72;1734333;82;21157;-52
2021/01/12 05:43:39;;;;;;;46.25;29.87;;;;;;;0.45;69.63;100890.76;1734544;82;22077;-52
2021/01/12 05:46:16;;;;;;;45.65;30.40;;;;;;;0.41;69.89;100881.89;1734380;82;21049;-52
2021/01/12 05:48:45;;;;;;;42.73;27.35;;;;;;;0.45;70.12;100888.59;1734639;82;21006;-51
2021/01/12 05:51:15;;;;;;;42.93;28.87;;;;;;;0.45;70.48;100890.76;1734532;82;21060;-52
2021/01/12 05:53:51;;;;;;;49.45;30.08;;;;;;;0.42;70.70;100887.63;1734602;82;22196;-52
2021/01/12 05:56:23;;;;;;;44.25;28.85;;;;;;;0.42;70.91;100891.69;1734665;82;21042;-52
2021/01/12 05:58:55;;;;;;;43.17;27.95;;;;;;;0.39;71.26;100897.48;1734454;82;20998;-52
2021/01/12 06:01:47;;;;;;;46.08;29.05;;;;;;;0.37;71.53;100900.88;1734440;82;21753;-52
2021/01/12 06:04:15;;;;;;;46.20;29.27;;;;;;;0.32;71.78;100904.99;1734588;82;21061;-52
2021/01/12 06:06:45;;;;;;;45.70;31.10;;;;;;;0.29;72.21;100911.31;1734439;82;21228;-52
2021/01/12 06:09:14;;;;;;;44.08;27.52;;;;;;;0.29;72.39;100907.27;1734487;82;21025;-51
2021/01/12 06:11:49;;;;;;;47.35;32.08;;;;;;;0.24;72.82;100899.72;1734413;82;21053;-51
2021/01/12 06:14:26;;;;;;;48.45;29.50;;;;;;;0.20;73.06;100908.41;1734458;82;21065;-52
2021/01/12 06:16:55;;;;;;;43.95;27.07;;;;;;;0.22;73.29;100909.06;1734536;82;21053;-51
2021/01/12 06:19:27;;;;;;;44.27;28.62;;;;;;;0.24;73.39;100892.13;1734493;82;21362;-52
2021/01/12 06:22:01;;;;;;;50.43;32.35;;;;;;;0.23;73.20;100910.22;1734236;82;21077;-52
2021/01/12 06:24:44;;;;;;;46.73;32.10;;;;;;;0.23;73.36;100911.58;1734527;82;21628;-52
2021/01/12 06:27:17;;;;;;;46.02;28.87;;;;;;;0.25;73.30;100906.80;1734059;82;21103;-52
2021/01/12 06:29:48;;;;;;;43.20;29.37;;;;;;;0.25;73.25;100912.20;1734680;82;21564;-52
2021/01/12 06:32:21;;;;;;;40.52;26.73;;;;;;;0.22;73.12;100919.35;1734469;82;21803;-52
2021/01/12 06:35:04;;;;;;;40.15;25.75;;;;;;;0.20;73.09;100915.16;1733976;82;21009;-52
2021/01/12 06:37:42;;;;;;;40.20;25.27;;;;;;;0.18;73.02;100908.60;1734609;82;21010;-52
2021/01/12 06:40:11;;;;;;;52.45;29.45;;;;;;;0.20;72.90;100899.80;1734195;82;21001;-52
2021/01/12 06:42:43;;;;;;;48.95;26.68;;;;;;;0.22;73.02;100897.73;1734435;82;21225;-52
2021/01/12 06:45:13;;;;;;;45.00;28.55;;;;;;;0.24;72.68;100894.84;1734512;82;21287;-53
2021/01/12 06:47:42;;;;;;;41.28;26.55;;;;;;;0.27;72.61;100898.50;1734394;82;21029;-52
2021/01/12 06:50:16;;;;;;;44.13;26.87;;;;;;;0.26;72.21;100896.33;1734512;82;21068;-52
2021/01/12 06:52:47;;;;;;;39.27;25.20;;;;;;;0.24;71.70;100894.31;1734407;82;21356;-51
2021/01/12 06:55:20;;;;;;;41.25;27.30;;;;;;;0.21;71.26;100890.65;1734550;82;21276;-51
2021/01/12 06:57:50;;;;;;;32.28;22.07;;;;;;;0.20;71.27;100884.09;1734390;82;21150;-52
2021/01/12 07:00:21;;;;;;;36.00;22.02;;;;;;;0.19;71.16;100886.46;1734592;82;21651;-51
2021/01/12 07:02:56;;;;;;;35.58;22.67;;;;;;;0.18;70.67;100882.11;1734542;82;21006;-52
2021/01/12 07:05:23;;;;;;;31.35;20.82;;;;;;;0.15;70.31;100883.33;1734449;82;21085;-52
2021/01/12 07:07:53;;;;;;;37.13;23.73;;;;;;;0.12;69.91;100880.49;1734611;82;21022;-51
2021/01/12 07:10:22;;;;;;;31.93;21.85;;;;;;;0.14;69.69;100881.65;1738651;81;21266;-52
2021/01/12 07:12:51;;;;;;;35.60;22.17;;;;;;;0.16;69.83;100880.95;1754875;81;21667;-52
2021/01/12 07:15:21;;;;;;;33.30;20.88;;;;;;;0.21;69.36;100877.66;1733000;82;21482;-51
2021/01/12 07:17:54;;;;;;;31.87;20.02;;;;;;;0.22;68.86;100883.40;1740194;81;21007;-52
2021/01/12 07:20:26;;;;;;;33.67;20.30;;;;;;;0.24;68.79;100884.85;1733945;82;21043;-52
2021/01/12 07:22:57;;;;;;;29.50;20.27;;;;;;;0.26;68.46;100892.27;1752322;81;22291;-52
2021/01/12 07:25:35;;;;;;;28.85;18.00;;;;;;;0.26;67.46;100880.64;1712575;81;21069;-51
2021/01/12 07:28:16;;;;;;;33.83;21.62;;;;;;;0.18;67.65;100881.58;1772692;79;21053;-51
2021/01/12 07:30:49;;;;;;;36.55;20.37;;;;;;;0.19;68.11;100874.30;1782472;80;21064;-51
2021/01/12 07:33:22;;;;;;;38.63;23.52;;;;;;;0.21;68.12;100881.72;1783028;80;21206;-52
2021/01/12 07:35:51;;;;;;;29.82;19.73;;;;;;;0.19;68.25;100872.46;1745966;79;21745;-52
2021/01/12 07:38:22;;;;;;;33.75;20.40;;;;;;;0.21;68.36;100874.44;1780337;80;21032;-52
2021/01/12 07:40:50;;;;;;;31.15;20.57;;;;;;;0.25;68.44;100881.66;1750308;81;20954;-51
2021/01/12 07:43:22;;;;;;;31.75;20.12;;;;;;;0.25;68.04;100868.97;1750311;82;21045;-52
2021/01/12 07:45:51;;;;;;;25.37;17.37;;;;;;;0.24;67.74;100871.87;1749990;82;21037;-50
2021/01/12 07:48:20;;;;;;;28.80;17.42;;;;;;;0.19;67.70;100871.11;1750467;82;22529;-51
2021/01/12 07:50:50;;;;;;;31.00;18.05;;;;;;;0.15;67.63;100865.77;1750669;81;22162;-52
2021/01/12 07:53:19;;;;;;;30.90;20.35;;;;;;;0.11;67.78;100861.78;1750353;82;20981;-51
2021/01/12 07:55:48;;;;;;;28.12;16.85;;;;;;;0.12;68.17;100861.58;1750226;81;21647;-51
2021/01/12 07:58:17;;;;;;;28.98;18.55;;;;;;;0.15;68.36;100856.31;1750530;81;21064;-51
2021/01/12 08:00:47;;;;;;;31.68;19.75;;;;;;;0.15;68.26;100863.89;1750301;81;21266;-50
2021/01/12 08:03:17;;;;;;;35.48;21.15;;;;;;;0.10;68.56;100865.50;1775590;79;21225;-51
2021/01/12 08:05:44;;;;;;;31.17;21.10;;;;;;;0.10;68.83;100861.45;1800381;79;21022;-51
2021/01/12 08:08:12;;;;;;;33.50;20.35;;;;;;;0.11;68.66;100850.97;1802850;79;21045;-51
2021/01/12 08:10:42;;;;;;;34.35;19.85;;;;;;;0.14;68.83;100860.03;1803108;79;20999;-53
2021/01/12 08:13:11;;;;;;;29.65;19.77;;;;;;;0.14;68.18;100859.54;1807444;79;21254;-51
2021/01/12 08:15:48;;;;;;;29.23;18.80;;;;;;;0.15;68.13;100863.06;1758626;79;21136;-50
2021/01/12 08:18:21;;;;;;;25.57;18.12;;;;;;;0.15;68.01;100857.14;1728782;80;21034;-51
2021/01/12 08:20:54;;;;;;;25.30;17.55;;;;;;;0.15;67.55;100861.72;1712436;81;21053;-52
2021/01/12 08:23:21;;;;;;;29.60;19.10;;;;;;;0.10;67.81;100850.64;1710045;81;21042;-52
2021/01/12 08:25:49;;;;;;;34.67;20.20;;;;;;;0.13;68.00;100854.34;1730952;81;21376;-52
2021/01/12 08:28:16;;;;;;;29.48;17.20;;;;;;;0.20;68.05;100856.58;1732623;81;21740;-51
2021/01/12 08:30:44;;;;;;;28.12;19.48;;;;;;;0.26;68.33;100861.19;1750198;80;21641;-52
2021/01/12 08:33:25;;;;;;;28.23;17.98;;;;;;;0.34;68.23;100858.36;1743299;80;21608;-50
2021/01/12 08:36:02;;;;;;;28.83;19.75;;;;;;;0.40;68.21;100860.80;1771842;80;21714;-51
2021/01/12 08:38:31;;;;;;;30.10;19.77;;;;;;;0.39;68.14;100854.24;1767883;80;21338;-52
2021/01/12 08:40:59;;;;;;;29.90;19.00;;;;;;;0.39;68.25;100859.12;1777871;80;21718;-50
2021/01/12 08:43:29;;;;;;;28.35;19.75;;;;;;;0.41;68.00;100853.52;1771975;79;21059;-52
2021/01/12 08:46:00;;;;;;;30.48;17.15;;;;;;;0.37;67.91;100861.16;1767988;80;21055;-52
2021/01/12 08:48:29;;;;;;;29.48;20.15;;;;;;;0.33;68.21;100854.50;1775051;80;22691;-53
2021/01/12 08:50:58;;;;;;;27.05;18.65;;;;;;;0.32;68.43;100858.23;1765380;80;21710;-51
2021/01/12 08:53:30;;;;;;;29.35;18.10;;;;;;;0.34;68.03;100854.31;1771458;80;21171;-50
2021/01/12 08:56:08;;;;;;;29.70;20.25;;;;;;;0.30;67.86;100844.92;1779164;78;21036;-50
2021/01/12 08:58:35;;;;;;;26.60;16.82;;;;;;;0.24;67.83;100848.38;1782216;79;21498;-50
2021/01/12 09:01:04;;;;;;;28.40;20.75;;;;;;;0.19;67.73;100850.84;1772418;80;21683;-51
2021/01/12 09:03:33;;;;;;;33.28;19.60;;;;;;;0.16;67.91;100845.31;1773738;80;21384;-50
2021/01/12 09:06:03;;;;;;;28.92;18.00;;;;;;;0.18;67.82;100842.94;1774869;79;21001;-52
2021/01/12 09:08:31;;;;;;;26.60;17.23;;;;;;;0.19;67.81;100840.04;1779559;79;21044;-51
2021/01/12 09:11:07;;;;;;;27.62;18.75;;;;;;;0.25;68.20;100850.06;1758390;79;21215;-52
2021/01/12 09:13:34;;;;;;;28.02;19.55;;;;;;;0.33;67.63;100847.22;1776944;79;21166;-52
2021/01/12 09:16:03;;;;;;;29.45;20.10;;;;;;;0.29;67.73;100836.48;1769280;80;21191;-52
2021/01/12 09:18:35;;;;;;;29.63;18.50;;;;;;;0.27;67.88;100837.20;1770685;79;21681;-52
2021/01/12 09:21:07;;;;;;;30.12;19.98;;;;;;;0.27;67.73;100830.45;1780416;79;21014;-52
2021/01/12 09:23:37;;;;;;;30.40;20.97;;;;;;;0.28;68.07;100831.28;1770447;80;20980;-51
2021/01/12 09:26:05;;;;;;;27.32;19.27;;;;;;;0.34;67.91;100829.13;1772894;79;20986;-51
2021/01/12 09:28:38;;;;;;;29.07;19.37;;;;;;;0.39;67.78;100821.81;1777225;80;21146;-51
2021/01/12 09:31:09;;;;;;;24.18;17.65;;;;;;;0.43;67.30;100823.92;1771135;79;21077;-52
2021/01/12 09:33:39;;;;;;;28.87;18.70;;;;;;;0.44;66.91;100815.28;1775962;79;21018;-52
2021/01/12 09:36:10;;;;;;;31.75;18.12;;;;;;;0.39;66.52;100831.27;1768016;80;21057;-52
2021/01/12 09:38:43;;;;;;;28.12;17.87;;;;;;;0.31;66.48;100820.89;1769532;80;21070;-50
2021/01/12 09:41:11;;;;;;;28.20;18.07;;;;;;;0.27;66.35;100825.05;1757927;80;22190;-50
2021/01/12 09:43:39;;;;;;;27.17;16.93;;;;;;;0.26;66.21;100822.02;1761780;79;21008;-52
2021/01/12 09:46:07;;;;;;;24.25;16.82;;;;;;;0.24;66.36;100805.67;1729949;82;21055;-52
2021/01/12 09:48:35;;;;;;;31.87;17.62;;;;;;;0.25;66.23;100795.20;1761086;79;20949;-52
2021/01/12 09:51:04;;;;;;;29.00;19.73;;;;;;;0.24;66.12;100809.73;1755331;80;20984;-53
2021/01/12 09:53:31;;;;;;;27.67;18.75;;;;;;;0.20;66.15;100792.23;1760271;80;21357;-52
2021/01/12 09:55:58;;;;;;;30.60;21.73;;;;;;;0.21;66.00;100771.77;1773247;79;20996;-52
2021/01/12 09:58:27;;;;;;;27.15;18.17;;;;;;;0.25;66.04;100769.00;1764411;79;22009;-52
2021/01/12 10:00:55;;;;;;;26.20;18.62;;;;;;;0.26;65.89;100765.27;1761774;79;20994;-53
2021/01/12 10:03:23;;;;;;;27.58;18.32;;;;;;;0.30;65.81;100765.20;1749202;81;20986;-52
2021/01/12 10:05:50;;;;;;;26.82;18.75;;;;;;;0.33;65.98;100755.34;1770192;79;21242;-52
2021/01/12 10:08:18;;;;;;;23.87;16.27;;;;;;;0.32;66.05;100746.91;1756697;80;20994;-52
2021/01/12 10:10:46;;;;;;;27.10;19.45;;;;;;;0.35;65.98;100740.28;1754791;80;20950;-52
2021/01/12 10:13:13;;;;;;;26.87;17.95;;;;;;;0.33;66.05;100736.43;1729346;81;21058;-52
2021/01/12 10:15:41;;;;;;;30.92;20.43;;;;;;;0.33;66.21;100733.73;1753316;80;20972;-51
2021/01/12 10:18:08;;;;;;;32.67;20.68;;;;;;;0.33;65.98;100722.92;1753217;81;21205;-52
2021/01/12 10:20:36;;;;;;;27.17;18.15;;;;;;;0.36;66.43;100720.84;1754299;80;20995;-53
2021/01/12 10:23:03;;;;;;;31.42;19.80;;;;;;;0.42;66.74;100712.78;1756218;80;21011;-53
2021/01/12 10:25:31;;;;;;;26.42;18.77;;;;;;;0.46;66.80;100711.88;1755284;80;20960;-53
2021/01/12 10:28:02;;;;;;;28.42;18.60;;;;;;;0.51;66.77;100701.28;1763527;79;20986;-52
2021/01/12 10:30:30;;;;;;;26.80;18.15;;;;;;;0.56;66.90;100706.94;1726902;81;21309;-52
2021/01/12 10:33:00;;;;;;;32.95;21.68;;;;;;;0.58;66.36;100699.98;1768669;79;21528;-53
2021/01/12 10:35:29;;;;;;;33.65;18.98;;;;;;;0.56;66.37;100696.12;1738065;81;20989;-53
2021/01/12 10:37:58;;;;;;;26.45;19.42;;;;;;;0.51;66.60;100685.92;1769804;79;21005;-51
2021/01/12 10:40:25;;;;;;;29.80;18.55;;;;;;;0.54;66.66;100680.61;1772264;79;21010;-55
2021/01/12 10:42:53;;;;;;;35.30;23.32;;;;;;;0.61;66.77;100676.06;1773444;80;21205;-52
2021/01/12 10:45:21;;;;;;;31.90;21.40;;;;;;;0.65;66.14;100675.98;1775101;79;20998;-53
2021/01/12 10:47:49;;;;;;;34.83;20.25;;;;;;;0.68;66.32;100668.81;1772965;80;20978;-53
2021/01/12 10:50:18;;;;;;;34.20;19.57;;;;;;;0.73;65.81;100660.12;1774559;79;21666;-54
2021/01/12 10:52:46;;;;;;;28.90;19.48;;;;;;;0.69;65.43;100650.74;1770308;79;20989;-53
2021/01/12 10:55:13;;;;;;;37.10;20.48;;;;;;;0.63;65.03;100657.79;1772660;79;21334;-52
2021/01/12 10:57:45;;;;;;;34.03;21.48;;;;;;;0.60;65.19;100658.70;1773326;79;21030;-53
2021/01/12 11:00:15;;;;;;;24.70;16.73;;;;;;;0.54;64.72;100650.87;1772351;80;20977;-54
2021/01/12 11:02:42;;;;;;;29.45;20.02;;;;;;;0.48;64.77;100648.98;1775714;79;20982;-54
2021/01/12 11:05:10;;;;;;;30.52;18.48;;;;;;;0.47;64.81;100655.42;1773058;79;21093;-53
2021/01/12 11:07:41;;;;;;;31.05;19.77;;;;;;;0.45;64.55;100648.04;1772623;79;22282;-53
2021/01/12 11:10:10;;;;;;;32.45;18.37;;;;;;;0.44;64.50;100654.47;1773452;79;21002;-52
2021/01/12 11:12:38;;;;;;;35.63;20.27;;;;;;;0.40;64.15;100651.84;1726707;80;21171;-53
2021/01/12 11:15:07;;;;;;;33.55;19.45;;;;;;;0.38;64.25;100663.39;1725574;81;20989;-55
2021/01/12 11:17:34;;;;;;;29.18;19.52;;;;;;;0.36;64.02;100649.23;1729147;81;20987;-54
2021/01/12 11:20:06;;;;;;;30.45;20.08;;;;;;;0.31;64.04;100652.02;1724796;81;21754;-53
2021/01/12 11:22:34;;;;;;;38.90;21.15;;;;;;;0.34;64.37;100642.17;1773285;79;21092;-54
2021/01/12 11:25:03;;;;;;;32.58;19.70;;;;;;;0.44;64.74;100636.38;1777982;79;20994;-55
2021/01/12 11:27:30;;;;;;;32.28;20.00;;;;;;;0.56;64.44;100642.06;1773346;80;20976;-54
2021/01/12 11:30:00;;;;;;;37.60;20.37;;;;;;;0.61;64.36;100642.80;1773437;80;21649;-53